sensor_id;sensor_type;location;lat;lon;timestamp;noise_LAeq;noise_LA_min;noise_LA_max;noise_LA01;noise_LA95
72686;Laerm;61365;52.162;4.500;2024-03-07T00:00:45;43.27;33.13;52.39;;
72686;Laerm;61365;52.162;4.500;2024-03-07T00:03:11;43.16;34.80;53.39;;
72686;Laerm;61365;52.162;4.500;2024-03-07T00:05:37;43.25;32.29;52.19;;
72686;Laerm;61365;52.162;4.500;2024-03-07T00:08:04;43.29;33.32;51.72;;
72686;Laerm;61365;52.162;4.500;2024-03-07T00:10:31;43.24;33.48;53.57;;
72686;Laerm;61365;52.162;4.500;2024-03-07T00:12:57;43.19;34.18;53.10;;
72686;Laerm;61365;52.162;4.500;2024-03-07T00:15:24;43.12;35.77;51.49;;
72686;Laerm;61365;52.162;4.500;2024-03-07T00:17:50;43.14;34.48;50.82;;
72686;Laerm;61365;52.162;4.500;2024-03-07T00:20:16;42.97;34.09;49.95;;
72686;Laerm;61365;52.162;4.500;2024-03-07T00:22:45;42.95;34.17;50.57;;
72686;Laerm;61365;52.162;4.500;2024-03-07T00:25:11;43.11;36.30;50.56;;
72686;Laerm;61365;52.162;4.500;2024-03-07T00:27:40;43.05;34.37;50.73;;
72686;Laerm;61365;52.162;4.500;2024-03-07T00:30:06;43.05;32.30;50.78;;
72686;Laerm;61365;52.162;4.500;2024-03-07T00:32:34;42.99;33.77;51.56;;
72686;Laerm;61365;52.162;4.500;2024-03-07T00:35:06;43.08;35.18;53.06;;
72686;Laerm;61365;52.162;4.500;2024-03-07T00:37:34;43.04;34.27;51.42;;
72686;Laerm;61365;52.162;4.500;2024-03-07T00:40:01;43.07;34.02;52.17;;
72686;Laerm;61365;52.162;4.500;2024-03-07T00:42:28;43.31;33.33;51.03;;
72686;Laerm;61365;52.162;4.500;2024-03-07T00:44:54;43.25;33.76;53.64;;
72686;Laerm;61365;52.162;4.500;2024-03-07T00:47:20;43.34;31.81;51.43;;
72686;Laerm;61365;52.162;4.500;2024-03-07T00:49:47;43.25;32.62;52.29;;
72686;Laerm;61365;52.162;4.500;2024-03-07T00:52:13;43.35;36.36;52.72;;
72686;Laerm;61365;52.162;4.500;2024-03-07T00:54:40;43.21;32.27;51.76;;
72686;Laerm;61365;52.162;4.500;2024-03-07T00:57:07;43.13;32.74;51.95;;
72686;Laerm;61365;52.162;4.500;2024-03-07T00:59:33;43.15;31.89;51.10;;
72686;Laerm;61365;52.162;4.500;2024-03-07T01:01:59;43.17;33.39;52.66;;
72686;Laerm;61365;52.162;4.500;2024-03-07T01:04:26;43.27;33.86;53.86;;
72686;Laerm;61365;52.162;4.500;2024-03-07T01:06:57;43.40;33.30;51.92;;
72686;Laerm;61365;52.162;4.500;2024-03-07T01:09:24;43.25;34.43;53.02;;
72686;Laerm;61365;52.162;4.500;2024-03-07T01:11:50;43.25;33.11;53.73;;
72686;Laerm;61365;52.162;4.500;2024-03-07T01:14:16;43.16;35.75;51.46;;
72686;Laerm;61365;52.162;4.500;2024-03-07T01:16:42;43.17;33.82;51.16;;
72686;Laerm;61365;52.162;4.500;2024-03-07T01:19:09;43.34;35.55;52.43;;
72686;Laerm;61365;52.162;4.500;2024-03-07T01:21:35;43.25;33.46;50.72;;
72686;Laerm;61365;52.162;4.500;2024-03-07T01:24:01;43.33;35.39;52.46;;
72686;Laerm;61365;52.162;4.500;2024-03-07T01:26:28;43.43;34.29;51.15;;
72686;Laerm;61365;52.162;4.500;2024-03-07T01:28:56;43.42;35.53;50.99;;
72686;Laerm;61365;52.162;4.500;2024-03-07T01:31:23;43.44;34.45;51.81;;
72686;Laerm;61365;52.162;4.500;2024-03-07T01:33:49;43.25;34.10;53.50;;
72686;Laerm;61365;52.162;4.500;2024-03-07T01:36:16;43.33;34.72;52.23;;
72686;Laerm;61365;52.162;4.500;2024-03-07T01:38:42;43.34;33.22;50.92;;
72686;Laerm;61365;52.162;4.500;2024-03-07T01:41:08;43.30;33.72;52.02;;
72686;Laerm;61365;52.162;4.500;2024-03-07T01:43:34;43.38;33.56;52.04;;
72686;Laerm;61365;52.162;4.500;2024-03-07T01:46:01;43.39;33.59;52.19;;
72686;Laerm;61365;52.162;4.500;2024-03-07T01:48:28;43.29;34.60;51.10;;
72686;Laerm;61365;52.162;4.500;2024-03-07T01:50:55;43.24;33.84;52.19;;
72686;Laerm;61365;52.162;4.500;2024-03-07T01:53:22;43.23;35.46;51.87;;
72686;Laerm;61365;52.162;4.500;2024-03-07T01:55:50;43.27;33.58;53.05;;
72686;Laerm;61365;52.162;4.500;2024-03-07T01:58:18;43.34;34.13;52.45;;
72686;Laerm;61365;52.162;4.500;2024-03-07T02:00:45;43.10;34.59;50.85;;
72686;Laerm;61365;52.162;4.500;2024-03-07T02:03:13;43.15;34.86;51.80;;
72686;Laerm;61365;52.162;4.500;2024-03-07T02:05:40;43.24;34.23;51.83;;
72686;Laerm;61365;52.162;4.500;2024-03-07T02:08:07;43.07;32.99;52.28;;
72686;Laerm;61365;52.162;4.500;2024-03-07T02:10:33;43.06;34.48;50.72;;
72686;Laerm;61365;52.162;4.500;2024-03-07T02:12:59;43.07;35.35;51.38;;
72686;Laerm;61365;52.162;4.500;2024-03-07T02:15:27;43.13;33.34;53.39;;
72686;Laerm;61365;52.162;4.500;2024-03-07T02:17:53;43.18;32.14;55.14;;
72686;Laerm;61365;52.162;4.500;2024-03-07T02:20:19;43.10;34.50;51.62;;
72686;Laerm;61365;52.162;4.500;2024-03-07T02:22:45;43.07;35.19;51.30;;
72686;Laerm;61365;52.162;4.500;2024-03-07T02:25:12;43.12;34.82;51.19;;
72686;Laerm;61365;52.162;4.500;2024-03-07T02:27:38;43.10;33.33;51.71;;
72686;Laerm;61365;52.162;4.500;2024-03-07T02:30:05;43.05;34.21;50.68;;
72686;Laerm;61365;52.162;4.500;2024-03-07T02:32:37;43.10;32.27;52.43;;
72686;Laerm;61365;52.162;4.500;2024-03-07T02:35:06;43.04;35.39;51.87;;
72686;Laerm;61365;52.162;4.500;2024-03-07T02:37:34;43.15;34.78;51.56;;
72686;Laerm;61365;52.162;4.500;2024-03-07T02:40:00;42.94;33.41;51.81;;
72686;Laerm;61365;52.162;4.500;2024-03-07T02:42:27;42.94;35.99;51.17;;
72686;Laerm;61365;52.162;4.500;2024-03-07T02:44:53;43.21;34.18;52.33;;
72686;Laerm;61365;52.162;4.500;2024-03-07T02:47:19;43.14;31.73;50.86;;
72686;Laerm;61365;52.162;4.500;2024-03-07T02:49:45;42.99;34.81;51.84;;
72686;Laerm;61365;52.162;4.500;2024-03-07T02:52:11;43.00;32.69;52.90;;
72686;Laerm;61365;52.162;4.500;2024-03-07T02:54:38;42.91;33.98;50.88;;
72686;Laerm;61365;52.162;4.500;2024-03-07T02:57:04;42.90;33.69;52.37;;
72686;Laerm;61365;52.162;4.500;2024-03-07T02:59:31;42.87;31.89;51.93;;
72686;Laerm;61365;52.162;4.500;2024-03-07T03:01:58;43.03;34.14;51.30;;
72686;Laerm;61365;52.162;4.500;2024-03-07T03:04:24;42.95;35.58;51.54;;
72686;Laerm;61365;52.162;4.500;2024-03-07T03:06:50;43.01;34.68;53.02;;
72686;Laerm;61365;52.162;4.500;2024-03-07T03:09:16;42.97;32.83;53.68;;
72686;Laerm;61365;52.162;4.500;2024-03-07T03:11:44;42.90;34.50;53.38;;
72686;Laerm;61365;52.162;4.500;2024-03-07T03:14:12;42.85;34.86;53.86;;
72686;Laerm;61365;52.162;4.500;2024-03-07T03:16:42;43.01;34.44;52.51;;
72686;Laerm;61365;52.162;4.500;2024-03-07T03:19:10;43.03;34.75;51.99;;
72686;Laerm;61365;52.162;4.500;2024-03-07T03:21:36;43.09;36.14;52.22;;
72686;Laerm;61365;52.162;4.500;2024-03-07T03:24:04;42.98;33.99;52.66;;
72686;Laerm;61365;52.162;4.500;2024-03-07T03:26:30;43.06;36.95;51.97;;
72686;Laerm;61365;52.162;4.500;2024-03-07T03:28:57;43.06;35.76;52.82;;
72686;Laerm;61365;52.162;4.500;2024-03-07T03:31:24;42.95;33.54;53.33;;
72686;Laerm;61365;52.162;4.500;2024-03-07T03:33:51;43.03;32.99;51.82;;
72686;Laerm;61365;52.162;4.500;2024-03-07T03:36:18;43.06;32.94;53.42;;
72686;Laerm;61365;52.162;4.500;2024-03-07T03:38:44;43.14;33.96;52.83;;
72686;Laerm;61365;52.162;4.500;2024-03-07T03:41:15;43.22;33.61;52.69;;
72686;Laerm;61365;52.162;4.500;2024-03-07T03:43:41;43.07;34.07;52.30;;
72686;Laerm;61365;52.162;4.500;2024-03-07T03:46:10;43.08;35.09;53.43;;
72686;Laerm;61365;52.162;4.500;2024-03-07T03:48:38;43.07;34.52;53.32;;
72686;Laerm;61365;52.162;4.500;2024-03-07T03:51:07;43.14;34.01;53.11;;
72686;Laerm;61365;52.162;4.500;2024-03-07T03:53:33;43.15;33.45;52.51;;
72686;Laerm;61365;52.162;4.500;2024-03-07T03:55:59;43.20;33.09;52.75;;
72686;Laerm;61365;52.162;4.500;2024-03-07T03:58:25;43.14;34.23;53.86;;
72686;Laerm;61365;52.162;4.500;2024-03-07T04:00:51;43.10;34.10;53.80;;
72686;Laerm;61365;52.162;4.500;2024-03-07T04:03:18;43.04;33.28;52.92;;
72686;Laerm;61365;52.162;4.500;2024-03-07T04:05:44;43.12;34.46;53.96;;
72686;Laerm;61365;52.162;4.500;2024-03-07T04:08:10;43.09;32.86;53.29;;
72686;Laerm;61365;52.162;4.500;2024-03-07T04:10:36;43.00;32.68;52.94;;
72686;Laerm;61365;52.162;4.500;2024-03-07T04:13:03;42.92;33.43;52.58;;
72686;Laerm;61365;52.162;4.500;2024-03-07T04:15:29;42.93;31.34;52.25;;
72686;Laerm;61365;52.162;4.500;2024-03-07T04:17:57;43.14;36.55;52.15;;
72686;Laerm;61365;52.162;4.500;2024-03-07T04:20:23;43.26;34.78;52.84;;
72686;Laerm;61365;52.162;4.500;2024-03-07T04:22:50;43.31;34.59;54.05;;
72686;Laerm;61365;52.162;4.500;2024-03-07T04:25:17;43.34;35.01;53.97;;
72686;Laerm;61365;52.162;4.500;2024-03-07T04:27:43;43.38;34.20;53.72;;
72686;Laerm;61365;52.162;4.500;2024-03-07T04:30:10;43.36;35.50;53.06;;
72686;Laerm;61365;52.162;4.500;2024-03-07T04:32:37;43.22;35.05;54.18;;
72686;Laerm;61365;52.162;4.500;2024-03-07T04:35:06;43.29;33.09;52.60;;
72686;Laerm;61365;52.162;4.500;2024-03-07T04:37:39;43.23;34.20;50.98;;
72686;Laerm;61365;52.162;4.500;2024-03-07T04:40:08;43.42;37.03;51.85;;
72686;Laerm;61365;52.162;4.500;2024-03-07T04:42:46;43.30;36.18;52.26;;
72686;Laerm;61365;52.162;4.500;2024-03-07T04:45:13;43.27;35.30;50.60;;
72686;Laerm;61365;52.162;4.500;2024-03-07T04:47:40;43.20;32.20;52.11;;
72686;Laerm;61365;52.162;4.500;2024-03-07T04:50:13;43.37;34.56;53.08;;
72686;Laerm;61365;52.162;4.500;2024-03-07T04:52:43;43.34;34.39;53.41;;
72686;Laerm;61365;52.162;4.500;2024-03-07T04:55:09;43.34;34.22;53.13;;
72686;Laerm;61365;52.162;4.500;2024-03-07T04:57:37;43.28;35.50;52.84;;
72686;Laerm;61365;52.162;4.500;2024-03-07T05:00:09;43.25;33.76;53.60;;
72686;Laerm;61365;52.162;4.500;2024-03-07T05:02:43;43.24;34.41;54.62;;
72686;Laerm;61365;52.162;4.500;2024-03-07T05:05:09;43.18;34.28;53.83;;
72686;Laerm;61365;52.162;4.500;2024-03-07T05:07:35;43.22;34.52;53.61;;
72686;Laerm;61365;52.162;4.500;2024-03-07T05:10:03;43.17;32.40;51.23;;
72686;Laerm;61365;52.162;4.500;2024-03-07T05:12:31;43.31;37.13;51.07;;
72686;Laerm;61365;52.162;4.500;2024-03-07T05:14:57;43.03;34.47;52.35;;
72686;Laerm;61365;52.162;4.500;2024-03-07T05:17:23;43.17;34.86;52.72;;
72686;Laerm;61365;52.162;4.500;2024-03-07T05:19:49;43.06;34.48;53.19;;
72686;Laerm;61365;52.162;4.500;2024-03-07T05:22:15;43.14;34.86;55.20;;
72686;Laerm;61365;52.162;4.500;2024-03-07T05:24:42;43.00;33.99;53.78;;
72686;Laerm;61365;52.162;4.500;2024-03-07T05:27:08;43.12;35.07;52.27;;
72686;Laerm;61365;52.162;4.500;2024-03-07T05:29:38;43.01;34.54;53.41;;
72686;Laerm;61365;52.162;4.500;2024-03-07T05:32:26;43.15;33.23;53.71;;
72686;Laerm;61365;52.162;4.500;2024-03-07T05:34:53;42.99;32.96;53.51;;
72686;Laerm;61365;52.162;4.500;2024-03-07T05:37:20;42.98;33.99;53.95;;
72686;Laerm;61365;52.162;4.500;2024-03-07T05:39:49;43.17;34.32;53.62;;
72686;Laerm;61365;52.162;4.500;2024-03-07T05:42:16;43.20;34.03;52.71;;
72686;Laerm;61365;52.162;4.500;2024-03-07T05:44:42;43.21;35.33;53.76;;
72686;Laerm;61365;52.162;4.500;2024-03-07T05:47:09;43.21;36.08;51.70;;
72686;Laerm;61365;52.162;4.500;2024-03-07T05:49:36;43.18;31.90;50.39;;
72686;Laerm;61365;52.162;4.500;2024-03-07T05:52:04;43.14;35.66;50.56;;
72686;Laerm;61365;52.162;4.500;2024-03-07T05:54:32;43.28;35.07;53.63;;
72686;Laerm;61365;52.162;4.500;2024-03-07T05:56:58;43.10;34.64;53.48;;
72686;Laerm;61365;52.162;4.500;2024-03-07T05:59:24;43.22;34.61;51.75;;
72686;Laerm;61365;52.162;4.500;2024-03-07T06:01:50;43.25;35.51;52.90;;
72686;Laerm;61365;52.162;4.500;2024-03-07T06:04:17;43.23;34.66;54.08;;
72686;Laerm;61365;52.162;4.500;2024-03-07T06:06:43;43.21;33.45;53.35;;
72686;Laerm;61365;52.162;4.500;2024-03-07T06:09:10;43.25;34.75;54.50;;
72686;Laerm;61365;52.162;4.500;2024-03-07T06:11:37;43.19;33.27;53.84;;
72686;Laerm;61365;52.162;4.500;2024-03-07T06:14:05;43.17;36.57;52.02;;
72686;Laerm;61365;52.162;4.500;2024-03-07T06:16:33;43.09;33.56;50.90;;
72686;Laerm;61365;52.162;4.500;2024-03-07T06:19:02;43.22;34.60;52.37;;
72686;Laerm;61365;52.162;4.500;2024-03-07T06:21:28;43.18;36.21;52.98;;
72686;Laerm;61365;52.162;4.500;2024-03-07T06:23:59;43.21;33.91;51.43;;
72686;Laerm;61365;52.162;4.500;2024-03-07T06:26:26;43.16;34.11;51.18;;
72686;Laerm;61365;52.162;4.500;2024-03-07T06:29:03;43.29;36.83;51.76;;
72686;Laerm;61365;52.162;4.500;2024-03-07T06:31:35;43.20;31.80;51.52;;
72686;Laerm;61365;52.162;4.500;2024-03-07T06:34:01;43.19;32.29;53.52;;
72686;Laerm;61365;52.162;4.500;2024-03-07T06:36:28;43.22;36.23;52.01;;
72686;Laerm;61365;52.162;4.500;2024-03-07T06:38:54;43.22;32.16;52.42;;
72686;Laerm;61365;52.162;4.500;2024-03-07T06:41:20;43.06;35.00;51.12;;
72686;Laerm;61365;52.162;4.500;2024-03-07T06:43:47;43.21;32.53;52.60;;
72686;Laerm;61365;52.162;4.500;2024-03-07T06:46:14;43.27;33.20;53.60;;
72686;Laerm;61365;52.162;4.500;2024-03-07T06:48:42;43.28;37.13;51.28;;
72686;Laerm;61365;52.162;4.500;2024-03-07T06:51:10;43.03;34.56;53.11;;
72686;Laerm;61365;52.162;4.500;2024-03-07T06:53:37;43.20;34.33;52.44;;
72686;Laerm;61365;52.162;4.500;2024-03-07T06:56:03;43.14;34.36;52.06;;
72686;Laerm;61365;52.162;4.500;2024-03-07T06:58:29;43.03;33.13;51.89;;
72686;Laerm;61365;52.162;4.500;2024-03-07T07:00:55;43.08;32.52;51.99;;
72686;Laerm;61365;52.162;4.500;2024-03-07T07:03:23;43.06;35.90;52.33;;
72686;Laerm;61365;52.162;4.500;2024-03-07T07:05:50;43.17;35.58;53.17;;
72686;Laerm;61365;52.162;4.500;2024-03-07T07:08:16;42.91;33.72;52.68;;
72686;Laerm;61365;52.162;4.500;2024-03-07T07:10:43;43.04;33.78;53.04;;
72686;Laerm;61365;52.162;4.500;2024-03-07T07:13:09;43.01;33.76;51.22;;
72686;Laerm;61365;52.162;4.500;2024-03-07T07:15:36;43.31;32.67;51.64;;
72686;Laerm;61365;52.162;4.500;2024-03-07T07:18:05;43.20;34.83;50.37;;
72686;Laerm;61365;52.162;4.500;2024-03-07T07:20:33;43.22;32.47;50.66;;
72686;Laerm;61365;52.162;4.500;2024-03-07T07:23:02;43.33;34.68;52.15;;
72686;Laerm;61365;52.162;4.500;2024-03-07T07:25:30;43.34;34.57;50.97;;
72686;Laerm;61365;52.162;4.500;2024-03-07T07:27:56;43.34;32.26;51.82;;
72686;Laerm;61365;52.162;4.500;2024-03-07T07:30:23;43.27;34.10;53.57;;
72686;Laerm;61365;52.162;4.500;2024-03-07T07:32:53;43.23;35.14;51.03;;
72686;Laerm;61365;52.162;4.500;2024-03-07T07:35:22;43.29;35.48;53.90;;
72686;Laerm;61365;52.162;4.500;2024-03-07T07:37:50;43.40;32.92;53.43;;
72686;Laerm;61365;52.162;4.500;2024-03-07T07:40:23;43.35;34.48;51.79;;
72686;Laerm;61365;52.162;4.500;2024-03-07T07:42:50;43.29;36.29;51.61;;
72686;Laerm;61365;52.162;4.500;2024-03-07T07:45:21;43.26;34.72;51.28;;
72686;Laerm;61365;52.162;4.500;2024-03-07T07:47:49;43.22;34.96;52.19;;
72686;Laerm;61365;52.162;4.500;2024-03-07T07:50:20;43.25;33.80;50.63;;
72686;Laerm;61365;52.162;4.500;2024-03-07T07:52:57;43.27;37.22;51.30;;
72686;Laerm;61365;52.162;4.500;2024-03-07T07:55:25;43.26;35.42;51.40;;
72686;Laerm;61365;52.162;4.500;2024-03-07T07:57:56;43.26;32.38;51.72;;
72686;Laerm;61365;52.162;4.500;2024-03-07T08:00:25;43.27;34.33;52.27;;
72686;Laerm;61365;52.162;4.500;2024-03-07T08:03:03;43.14;36.64;50.62;;
72686;Laerm;61365;52.162;4.500;2024-03-07T08:05:31;43.25;37.25;51.06;;
72686;Laerm;61365;52.162;4.500;2024-03-07T08:08:00;43.29;35.94;51.99;;
72686;Laerm;61365;52.162;4.500;2024-03-07T08:10:28;43.32;37.72;50.91;;
72686;Laerm;61365;52.162;4.500;2024-03-07T08:12:55;43.22;33.47;51.01;;
72686;Laerm;61365;52.162;4.500;2024-03-07T08:15:21;43.09;31.98;50.97;;
72686;Laerm;61365;52.162;4.500;2024-03-07T08:17:48;43.24;32.12;52.36;;
72686;Laerm;61365;52.162;4.500;2024-03-07T08:20:16;43.19;33.86;51.97;;
72686;Laerm;61365;52.162;4.500;2024-03-07T08:22:44;43.15;34.26;52.12;;
72686;Laerm;61365;52.162;4.500;2024-03-07T08:25:14;43.20;35.26;50.47;;
72686;Laerm;61365;52.162;4.500;2024-03-07T08:27:42;43.14;35.78;50.76;;
72686;Laerm;61365;52.162;4.500;2024-03-07T08:30:10;43.08;32.55;50.64;;
72686;Laerm;61365;52.162;4.500;2024-03-07T08:32:41;43.09;32.68;51.33;;
72686;Laerm;61365;52.162;4.500;2024-03-07T08:35:09;43.05;32.16;52.37;;
72686;Laerm;61365;52.162;4.500;2024-03-07T08:37:36;43.09;36.67;50.43;;
72686;Laerm;61365;52.162;4.500;2024-03-07T08:40:03;43.08;32.22;51.23;;
72686;Laerm;61365;52.162;4.500;2024-03-07T08:42:33;43.10;36.12;50.93;;
72686;Laerm;61365;52.162;4.500;2024-03-07T08:45:04;43.16;35.66;51.57;;
72686;Laerm;61365;52.162;4.500;2024-03-07T08:47:34;43.18;37.14;51.29;;
72686;Laerm;61365;52.162;4.500;2024-03-07T08:50:02;43.25;32.06;50.84;;
72686;Laerm;61365;52.162;4.500;2024-03-07T08:52:32;43.41;32.04;51.30;;
72686;Laerm;61365;52.162;4.500;2024-03-07T08:54:58;43.17;36.07;51.57;;
72686;Laerm;61365;52.162;4.500;2024-03-07T08:57:24;43.18;36.12;51.81;;
72686;Laerm;61365;52.162;4.500;2024-03-07T08:59:50;43.12;34.96;50.74;;
72686;Laerm;61365;52.162;4.500;2024-03-07T09:02:16;43.19;34.81;50.21;;
72686;Laerm;61365;52.162;4.500;2024-03-07T09:04:42;43.36;32.59;51.10;;
72686;Laerm;61365;52.162;4.500;2024-03-07T09:07:08;43.17;36.50;51.47;;
72686;Laerm;61365;52.162;4.500;2024-03-07T09:09:35;43.09;32.74;51.26;;
72686;Laerm;61365;52.162;4.500;2024-03-07T09:12:01;43.19;33.60;52.25;;
72686;Laerm;61365;52.162;4.500;2024-03-07T09:14:28;43.07;32.39;51.62;;
72686;Laerm;61365;52.162;4.500;2024-03-07T09:16:55;43.00;36.14;50.55;;
72686;Laerm;61365;52.162;4.500;2024-03-07T09:19:23;42.92;35.10;50.98;;
72686;Laerm;61365;52.162;4.500;2024-03-07T09:21:53;42.90;34.64;48.88;;
72686;Laerm;61365;52.162;4.500;2024-03-07T09:24:20;42.96;31.86;50.55;;
72686;Laerm;61365;52.162;4.500;2024-03-07T09:26:50;42.90;33.87;53.49;;
72686;Laerm;61365;52.162;4.500;2024-03-07T09:29:19;42.81;34.60;52.00;;
72686;Laerm;61365;52.162;4.500;2024-03-07T09:31:46;42.86;32.36;54.58;;
72686;Laerm;61365;52.162;4.500;2024-03-07T09:34:15;42.89;35.22;52.52;;
72686;Laerm;61365;52.162;4.500;2024-03-07T09:36:42;42.86;33.07;51.96;;
72686;Laerm;61365;52.162;4.500;2024-03-07T09:39:08;42.98;33.21;51.31;;
72686;Laerm;61365;52.162;4.500;2024-03-07T09:41:35;43.09;35.80;50.30;;
72686;Laerm;61365;52.162;4.500;2024-03-07T09:44:03;43.23;33.86;51.29;;
72686;Laerm;61365;52.162;4.500;2024-03-07T09:46:31;42.91;32.70;51.06;;
72686;Laerm;61365;52.162;4.500;2024-03-07T09:48:58;42.95;33.87;53.07;;
72686;Laerm;61365;52.162;4.500;2024-03-07T09:51:24;42.89;34.43;51.83;;
72686;Laerm;61365;52.162;4.500;2024-03-07T09:53:52;42.83;34.86;51.37;;
72686;Laerm;61365;52.162;4.500;2024-03-07T09:56:22;42.89;34.39;50.89;;
72686;Laerm;61365;52.162;4.500;2024-03-07T09:58:50;42.90;31.84;51.23;;
72686;Laerm;61365;52.162;4.500;2024-03-07T10:01:21;42.83;35.31;50.09;;
72686;Laerm;61365;52.162;4.500;2024-03-07T10:03:48;42.88;36.00;48.60;;
72686;Laerm;61365;52.162;4.500;2024-03-07T10:06:16;42.87;37.94;48.44;;
72686;Laerm;61365;52.162;4.500;2024-03-07T10:08:43;42.80;33.50;50.67;;
72686;Laerm;61365;52.162;4.500;2024-03-07T10:11:09;42.91;34.76;50.34;;
72686;Laerm;61365;52.162;4.500;2024-03-07T10:13:36;42.93;33.22;49.94;;
72686;Laerm;61365;52.162;4.500;2024-03-07T10:16:02;42.82;36.25;49.21;;
72686;Laerm;61365;52.162;4.500;2024-03-07T10:18:31;42.79;33.95;52.05;;
72686;Laerm;61365;52.162;4.500;2024-03-07T10:20:57;42.83;33.01;49.62;;
72686;Laerm;61365;52.162;4.500;2024-03-07T10:23:24;42.90;32.25;51.59;;
72686;Laerm;61365;52.162;4.500;2024-03-07T10:25:50;42.89;34.73;50.60;;
72686;Laerm;61365;52.162;4.500;2024-03-07T10:28:17;42.81;32.08;50.25;;
72686;Laerm;61365;52.162;4.500;2024-03-07T10:30:43;42.61;32.42;50.11;;
72686;Laerm;61365;52.162;4.500;2024-03-07T10:33:13;42.57;34.94;50.64;;
72686;Laerm;61365;52.162;4.500;2024-03-07T10:35:39;42.80;35.57;49.25;;
72686;Laerm;61365;52.162;4.500;2024-03-07T10:38:06;42.85;34.83;49.79;;
72686;Laerm;61365;52.162;4.500;2024-03-07T10:40:33;42.91;34.80;47.92;;
72686;Laerm;61365;52.162;4.500;2024-03-07T10:43:10;42.86;34.04;50.04;;
72686;Laerm;61365;52.162;4.500;2024-03-07T10:45:44;42.81;34.29;48.05;;
72686;Laerm;61365;52.162;4.500;2024-03-07T10:48:13;42.82;36.54;48.39;;
72686;Laerm;61365;52.162;4.500;2024-03-07T10:53:24;42.95;33.53;48.86;;
72686;Laerm;61365;52.162;4.500;2024-03-07T10:58:42;42.78;34.60;49.51;;
72686;Laerm;61365;52.162;4.500;2024-03-07T11:01:13;42.80;34.53;47.79;;
72686;Laerm;61365;52.162;4.500;2024-03-07T11:03:40;42.79;32.41;49.75;;
72686;Laerm;61365;52.162;4.500;2024-03-07T11:06:08;42.82;36.78;47.62;;
72686;Laerm;61365;52.162;4.500;2024-03-07T11:08:37;42.81;35.70;49.95;;
72686;Laerm;61365;52.162;4.500;2024-03-07T11:11:04;42.90;35.02;51.36;;
72686;Laerm;61365;52.162;4.500;2024-03-07T11:13:30;42.92;37.32;49.95;;
72686;Laerm;61365;52.162;4.500;2024-03-07T11:15:58;42.93;33.29;51.59;;
72686;Laerm;61365;52.162;4.500;2024-03-07T11:18:26;42.98;35.60;48.75;;
72686;Laerm;61365;52.162;4.500;2024-03-07T11:20:55;42.86;35.64;48.48;;
72686;Laerm;61365;52.162;4.500;2024-03-07T11:23:27;42.87;33.96;50.78;;
72686;Laerm;61365;52.162;4.500;2024-03-07T11:26:04;42.92;32.50;49.59;;
72686;Laerm;61365;52.162;4.500;2024-03-07T11:28:34;43.06;33.50;47.02;;
72686;Laerm;61365;52.162;4.500;2024-03-07T11:31:26;42.91;32.89;48.24;;
72686;Laerm;61365;52.162;4.500;2024-03-07T11:34:14;42.90;32.35;50.60;;
72686;Laerm;61365;52.162;4.500;2024-03-07T11:36:45;42.96;31.94;49.86;;
72686;Laerm;61365;52.162;4.500;2024-03-07T11:39:43;42.84;32.16;51.72;;
72686;Laerm;61365;52.162;4.500;2024-03-07T11:42:30;43.05;32.14;49.62;;
72686;Laerm;61365;52.162;4.500;2024-03-07T11:44:59;42.90;33.19;51.54;;
72686;Laerm;61365;52.162;4.500;2024-03-07T11:47:37;42.91;35.79;47.34;;
72686;Laerm;61365;52.162;4.500;2024-03-07T11:50:07;42.81;34.21;48.75;;
72686;Laerm;61365;52.162;4.500;2024-03-07T11:52:40;42.89;32.59;48.23;;
72686;Laerm;61365;52.162;4.500;2024-03-07T11:55:09;42.85;33.83;49.34;;
72686;Laerm;61365;52.162;4.500;2024-03-07T11:57:38;42.88;31.92;51.22;;
72686;Laerm;61365;52.162;4.500;2024-03-07T12:00:07;42.84;35.89;47.25;;
72686;Laerm;61365;52.162;4.500;2024-03-07T12:02:37;42.79;32.24;49.76;;
72686;Laerm;61365;52.162;4.500;2024-03-07T12:05:05;43.01;33.91;47.92;;
72686;Laerm;61365;52.162;4.500;2024-03-07T12:07:32;42.78;33.11;49.30;;
72686;Laerm;61365;52.162;4.500;2024-03-07T12:10:00;42.83;34.22;51.50;;
72686;Laerm;61365;52.162;4.500;2024-03-07T12:12:30;42.79;33.98;49.66;;
72686;Laerm;61365;52.162;4.500;2024-03-07T12:14:56;42.79;32.26;46.50;;
72686;Laerm;61365;52.162;4.500;2024-03-07T12:17:23;42.87;32.47;49.57;;
72686;Laerm;61365;52.162;4.500;2024-03-07T12:19:50;42.89;31.70;51.46;;
72686;Laerm;61365;52.162;4.500;2024-03-07T12:22:21;42.92;33.08;51.35;;
72686;Laerm;61365;52.162;4.500;2024-03-07T12:25:03;42.98;34.46;49.69;;
72686;Laerm;61365;52.162;4.500;2024-03-07T12:27:29;42.80;34.85;46.48;;
72686;Laerm;61365;52.162;4.500;2024-03-07T12:29:55;42.87;36.89;47.30;;
72686;Laerm;61365;52.162;4.500;2024-03-07T12:32:22;42.74;32.43;48.89;;
72686;Laerm;61365;52.162;4.500;2024-03-07T12:34:50;42.77;33.74;46.28;;
72686;Laerm;61365;52.162;4.500;2024-03-07T12:37:18;42.88;32.25;51.55;;
72686;Laerm;61365;52.162;4.500;2024-03-07T12:39:49;42.82;36.30;47.44;;
72686;Laerm;61365;52.162;4.500;2024-03-07T12:42:27;42.77;31.99;50.00;;
72686;Laerm;61365;52.162;4.500;2024-03-07T12:44:54;42.74;33.90;46.55;;
72686;Laerm;61365;52.162;4.500;2024-03-07T12:47:23;42.79;35.08;51.30;;
72686;Laerm;61365;52.162;4.500;2024-03-07T12:49:51;42.80;33.97;51.42;;
72686;Laerm;61365;52.162;4.500;2024-03-07T12:52:17;42.86;31.47;50.17;;
72686;Laerm;61365;52.162;4.500;2024-03-07T12:54:44;42.69;32.15;50.23;;
72686;Laerm;61365;52.162;4.500;2024-03-07T12:57:10;42.80;32.00;49.70;;
72686;Laerm;61365;52.162;4.500;2024-03-07T12:59:40;42.81;33.43;48.49;;
72686;Laerm;61365;52.162;4.500;2024-03-07T13:02:08;42.77;34.66;47.32;;
72686;Laerm;61365;52.162;4.500;2024-03-07T13:04:34;42.74;32.42;49.67;;
72686;Laerm;61365;52.162;4.500;2024-03-07T13:07:04;42.67;34.70;51.54;;
72686;Laerm;61365;52.162;4.500;2024-03-07T13:09:33;42.68;34.21;51.18;;
72686;Laerm;61365;52.162;4.500;2024-03-07T13:12:00;42.63;33.18;51.13;;
72686;Laerm;61365;52.162;4.500;2024-03-07T13:14:27;42.64;32.27;46.64;;
72686;Laerm;61365;52.162;4.500;2024-03-07T13:16:59;42.67;31.62;49.69;;
72686;Laerm;61365;52.162;4.500;2024-03-07T13:19:30;42.82;32.99;51.37;;
72686;Laerm;61365;52.162;4.500;2024-03-07T13:21:56;42.65;36.06;48.88;;
72686;Laerm;61365;52.162;4.500;2024-03-07T13:24:25;42.57;36.56;45.66;;
72686;Laerm;61365;52.162;4.500;2024-03-07T13:26:51;42.80;34.57;47.49;;
72686;Laerm;61365;52.162;4.500;2024-03-07T13:29:18;42.48;35.13;47.98;;
72686;Laerm;61365;52.162;4.500;2024-03-07T13:31:51;42.42;34.35;46.87;;
72686;Laerm;61365;52.162;4.500;2024-03-07T13:34:18;42.56;33.12;50.08;;
72686;Laerm;61365;52.162;4.500;2024-03-07T13:36:45;42.53;32.35;49.54;;
72686;Laerm;61365;52.162;4.500;2024-03-07T13:39:12;42.60;33.92;47.15;;
72686;Laerm;61365;52.162;4.500;2024-03-07T13:41:43;42.74;33.80;48.93;;
72686;Laerm;61365;52.162;4.500;2024-03-07T13:44:14;42.77;32.18;49.89;;
72686;Laerm;61365;52.162;4.500;2024-03-07T13:46:41;42.80;35.69;48.43;;
72686;Laerm;61365;52.162;4.500;2024-03-07T13:49:07;42.80;33.36;46.44;;
72686;Laerm;61365;52.162;4.500;2024-03-07T13:51:42;42.85;34.96;48.17;;
72686;Laerm;61365;52.162;4.500;2024-03-07T13:54:19;42.79;34.18;47.39;;